Aérodrome :
LOGIN :

S'inscrire | Disclaimer

   EN    FR    IT 

 










Légende :    VFR   VFR Marginal   IFR   IFR Intensif   IFR Très Intensif
Visi : 
Plafond : 
>= 8 km
>= 3000ft
5 à 8 km
1000 à 3000 ft
1500m à 5 km
500 à 1000 ft
800 à 1500m
200 à 500 ft
< 800m
< 200 ft
Symboles :   Orages  Brouillard  Fortes neiges  Fortes précipitations  Vent > 20 kt
SIGMETs :   Divers  Orages  Givrage  Turbulence  Onde Orograph.  Cendres Volcan.







- Altitude de l'aérodrome : 313 ft
- Code IATA : LEH
- Voir les cartes d'approche


LFOH - Le Havre Octeville

DERNIER METAR :
  • 241000Z AUTO 21009KT 9999 OVC019 18/13 Q1019 NOSIG

METARs EXPIRÉS :
  • 240930Z AUTO 21011KT 9999 OVC016 18/13 Q1019 NOSIG
  • 240900Z AUTO 23011KT 9999 OVC016 17/13 Q1019 NOSIG
  • 240830Z AUTO 22012KT 9999 OVC018 17/13 Q1019 NOSIG
  • 240800Z AUTO 22011KT 9999 BKN016 OVC022 17/14 Q1019 NOSIG
  • 240730Z AUTO 23013KT 200V270 9999 BKN015 BKN022 16/13 Q1019 NOSIG

TAF AMD TAF LFOH
Valide du 23 à 14h jusqu'au 24 à 12h UTC


231424Z 2314/2412 26012KT 9999 BKN030
BECMG 2400/2402 BKN008
BECMG 2406/2409 BKN020
ATIS : +33 2 35 54 64 93
Pas de NOTAMs connus pour ce terrain.



MET'MAP, la Météo Aéronautique d'un coup d'oeil ! - Copyright ORBIFLY Décembre 2007 - Disclaimer

ORBIFLY MET'MAP TEAM :

Programmation & Développement : Alexandra Zaïnal
Conception & Développement : Baudouin d'Aumeries
Co-Programmation & Développement : Marc-Olivier Méhu
Soutien technique & logistique : Manuel Goepfert

Contact : metmap@orbifly.com




SOURCES & CREDITS :

   NOAA